sensor_id;sensor_type;location;lat;lon;timestamp;P1;durP1;ratioP1;P2;durP2;ratioP2
27794;SDS011;15176;50.844;4.412;2023-03-04T00:01:50;17.83;;;7.13;;
27794;SDS011;15176;50.844;4.412;2023-03-04T00:04:16;16.92;;;6.90;;
27794;SDS011;15176;50.844;4.412;2023-03-04T00:06:42;19.33;;;7.35;;
27794;SDS011;15176;50.844;4.412;2023-03-04T00:09:07;17.50;;;7.40;;
27794;SDS011;15176;50.844;4.412;2023-03-04T00:11:33;14.93;;;7.20;;
27794;SDS011;15176;50.844;4.412;2023-03-04T00:13:59;19.52;;;7.22;;
27794;SDS011;15176;50.844;4.412;2023-03-04T00:16:25;16.23;;;6.93;;
27794;SDS011;15176;50.844;4.412;2023-03-04T00:18:54;17.25;;;6.90;;
27794;SDS011;15176;50.844;4.412;2023-03-04T00:21:21;15.85;;;7.22;;
27794;SDS011;15176;50.844;4.412;2023-03-04T00:23:47;17.30;;;6.75;;
27794;SDS011;15176;50.844;4.412;2023-03-04T00:26:13;16.95;;;7.45;;
27794;SDS011;15176;50.844;4.412;2023-03-04T00:28:39;18.20;;;7.55;;
27794;SDS011;15176;50.844;4.412;2023-03-04T00:31:05;19.38;;;7.53;;
27794;SDS011;15176;50.844;4.412;2023-03-04T00:33:31;25.75;;;8.77;;
27794;SDS011;15176;50.844;4.412;2023-03-04T00:35:57;17.40;;;8.75;;
27794;SDS011;15176;50.844;4.412;2023-03-04T00:38:22;17.88;;;8.82;;
27794;SDS011;15176;50.844;4.412;2023-03-04T00:40:48;22.65;;;8.55;;
27794;SDS011;15176;50.844;4.412;2023-03-04T00:43:14;26.05;;;9.00;;
27794;SDS011;15176;50.844;4.412;2023-03-04T00:45:40;21.95;;;9.27;;
27794;SDS011;15176;50.844;4.412;2023-03-04T00:48:05;25.63;;;10.35;;
27794;SDS011;15176;50.844;4.412;2023-03-04T00:50:31;19.67;;;9.13;;
27794;SDS011;15176;50.844;4.412;2023-03-04T00:52:58;20.73;;;8.57;;
27794;SDS011;15176;50.844;4.412;2023-03-04T00:55:24;22.90;;;9.27;;
27794;SDS011;15176;50.844;4.412;2023-03-04T00:57:50;21.48;;;8.00;;
27794;SDS011;15176;50.844;4.412;2023-03-04T01:00:15;28.40;;;8.18;;
27794;SDS011;15176;50.844;4.412;2023-03-04T01:02:43;20.60;;;8.18;;
27794;SDS011;15176;50.844;4.412;2023-03-04T01:05:08;19.65;;;8.27;;
27794;SDS011;15176;50.844;4.412;2023-03-04T01:07:34;21.13;;;7.93;;
27794;SDS011;15176;50.844;4.412;2023-03-04T01:10:00;22.75;;;8.80;;
27794;SDS011;15176;50.844;4.412;2023-03-04T01:12:26;21.92;;;7.78;;
27794;SDS011;15176;50.844;4.412;2023-03-04T01:14:52;22.20;;;8.02;;
27794;SDS011;15176;50.844;4.412;2023-03-04T01:17:18;18.45;;;7.75;;
27794;SDS011;15176;50.844;4.412;2023-03-04T01:19:44;23.75;;;7.38;;
27794;SDS011;15176;50.844;4.412;2023-03-04T01:22:10;21.17;;;6.88;;
27794;SDS011;15176;50.844;4.412;2023-03-04T01:24:37;23.50;;;7.03;;
27794;SDS011;15176;50.844;4.412;2023-03-04T01:27:03;20.58;;;7.28;;
27794;SDS011;15176;50.844;4.412;2023-03-04T01:29:29;22.05;;;7.72;;
27794;SDS011;15176;50.844;4.412;2023-03-04T01:31:54;18.48;;;8.07;;
27794;SDS011;15176;50.844;4.412;2023-03-04T01:34:20;24.60;;;7.53;;
27794;SDS011;15176;50.844;4.412;2023-03-04T01:36:46;19.98;;;7.60;;
27794;SDS011;15176;50.844;4.412;2023-03-04T01:39:11;19.42;;;6.90;;
27794;SDS011;15176;50.844;4.412;2023-03-04T01:41:37;20.33;;;6.72;;
27794;SDS011;15176;50.844;4.412;2023-03-04T01:44:03;19.40;;;6.90;;
27794;SDS011;15176;50.844;4.412;2023-03-04T01:46:30;25.23;;;7.78;;
27794;SDS011;15176;50.844;4.412;2023-03-04T01:48:56;20.48;;;7.22;;
27794;SDS011;15176;50.844;4.412;2023-03-04T01:51:22;22.95;;;7.75;;
27794;SDS011;15176;50.844;4.412;2023-03-04T01:53:48;19.08;;;7.38;;
27794;SDS011;15176;50.844;4.412;2023-03-04T02:01:31;26.63;;;7.40;;
27794;SDS011;15176;50.844;4.412;2023-03-04T02:03:57;18.67;;;7.28;;
27794;SDS011;15176;50.844;4.412;2023-03-04T02:06:23;21.55;;;7.10;;
27794;SDS011;15176;50.844;4.412;2023-03-04T02:08:48;21.25;;;7.53;;
27794;SDS011;15176;50.844;4.412;2023-03-04T02:11:14;20.98;;;7.00;;
27794;SDS011;15176;50.844;4.412;2023-03-04T02:13:41;19.67;;;7.03;;
27794;SDS011;15176;50.844;4.412;2023-03-04T02:16:06;27.90;;;6.72;;
27794;SDS011;15176;50.844;4.412;2023-03-04T02:18:32;23.38;;;8.02;;
27794;SDS011;15176;50.844;4.412;2023-03-04T02:21:09;22.23;;;6.93;;
27794;SDS011;15176;50.844;4.412;2023-03-04T02:23:49;20.10;;;7.10;;
27794;SDS011;15176;50.844;4.412;2023-03-04T02:26:37;15.32;;;6.65;;
27794;SDS011;15176;50.844;4.412;2023-03-04T02:29:05;20.35;;;7.10;;
27794;SDS011;15176;50.844;4.412;2023-03-04T02:31:34;21.40;;;6.50;;
27794;SDS011;15176;50.844;4.412;2023-03-04T02:36:38;20.92;;;6.43;;
27794;SDS011;15176;50.844;4.412;2023-03-04T02:39:19;26.05;;;6.60;;
27794;SDS011;15176;50.844;4.412;2023-03-04T02:41:57;19.70;;;6.85;;
27794;SDS011;15176;50.844;4.412;2023-03-04T02:44:31;19.48;;;6.85;;
27794;SDS011;15176;50.844;4.412;2023-03-04T02:46:59;23.67;;;6.35;;
27794;SDS011;15176;50.844;4.412;2023-03-04T02:49:28;18.17;;;6.57;;
27794;SDS011;15176;50.844;4.412;2023-03-04T02:54:29;17.83;;;6.65;;
27794;SDS011;15176;50.844;4.412;2023-03-04T02:56:55;22.67;;;6.60;;
27794;SDS011;15176;50.844;4.412;2023-03-04T02:59:23;19.02;;;6.65;;
27794;SDS011;15176;50.844;4.412;2023-03-04T03:01:49;23.58;;;6.88;;
27794;SDS011;15176;50.844;4.412;2023-03-04T03:04:16;18.88;;;6.20;;
27794;SDS011;15176;50.844;4.412;2023-03-04T03:06:42;21.30;;;6.85;;
27794;SDS011;15176;50.844;4.412;2023-03-04T03:09:08;18.80;;;7.65;;
27794;SDS011;15176;50.844;4.412;2023-03-04T03:11:34;20.58;;;6.65;;
27794;SDS011;15176;50.844;4.412;2023-03-04T03:14:00;26.23;;;7.28;;
27794;SDS011;15176;50.844;4.412;2023-03-04T03:16:26;21.48;;;6.75;;
27794;SDS011;15176;50.844;4.412;2023-03-04T03:18:52;23.27;;;7.13;;
27794;SDS011;15176;50.844;4.412;2023-03-04T03:21:17;23.52;;;7.00;;
27794;SDS011;15176;50.844;4.412;2023-03-04T03:23:43;21.20;;;6.60;;
27794;SDS011;15176;50.844;4.412;2023-03-04T03:26:09;21.50;;;6.40;;
27794;SDS011;15176;50.844;4.412;2023-03-04T03:28:35;18.15;;;6.53;;
27794;SDS011;15176;50.844;4.412;2023-03-04T03:31:01;21.65;;;6.70;;
27794;SDS011;15176;50.844;4.412;2023-03-04T03:33:26;24.17;;;7.07;;
27794;SDS011;15176;50.844;4.412;2023-03-04T03:35:52;22.67;;;6.90;;
27794;SDS011;15176;50.844;4.412;2023-03-04T03:38:18;24.23;;;6.93;;
27794;SDS011;15176;50.844;4.412;2023-03-04T03:40:44;19.73;;;5.68;;
27794;SDS011;15176;50.844;4.412;2023-03-04T03:43:09;19.33;;;6.10;;
27794;SDS011;15176;50.844;4.412;2023-03-04T03:45:35;24.55;;;6.70;;
27794;SDS011;15176;50.844;4.412;2023-03-04T03:48:01;20.13;;;6.80;;
27794;SDS011;15176;50.844;4.412;2023-03-04T03:50:27;22.27;;;7.38;;
27794;SDS011;15176;50.844;4.412;2023-03-04T03:52:53;21.95;;;7.20;;
27794;SDS011;15176;50.844;4.412;2023-03-04T03:55:19;18.38;;;6.95;;
27794;SDS011;15176;50.844;4.412;2023-03-04T03:57:45;22.00;;;7.38;;
27794;SDS011;15176;50.844;4.412;2023-03-04T04:00:11;22.65;;;7.22;;
27794;SDS011;15176;50.844;4.412;2023-03-04T04:02:38;25.27;;;7.13;;
27794;SDS011;15176;50.844;4.412;2023-03-04T04:05:05;21.35;;;7.20;;
27794;SDS011;15176;50.844;4.412;2023-03-04T04:07:31;20.55;;;6.82;;
27794;SDS011;15176;50.844;4.412;2023-03-04T04:09:57;21.42;;;6.90;;
27794;SDS011;15176;50.844;4.412;2023-03-04T04:12:23;18.77;;;6.90;;
27794;SDS011;15176;50.844;4.412;2023-03-04T04:14:49;24.65;;;7.60;;
27794;SDS011;15176;50.844;4.412;2023-03-04T04:17:14;24.77;;;7.25;;
27794;SDS011;15176;50.844;4.412;2023-03-04T04:19:40;22.95;;;7.35;;
27794;SDS011;15176;50.844;4.412;2023-03-04T04:22:07;20.10;;;7.07;;
27794;SDS011;15176;50.844;4.412;2023-03-04T04:24:37;23.95;;;7.65;;
27794;SDS011;15176;50.844;4.412;2023-03-04T04:27:02;15.60;;;6.38;;
27794;SDS011;15176;50.844;4.412;2023-03-04T04:29:28;19.73;;;7.07;;
27794;SDS011;15176;50.844;4.412;2023-03-04T04:31:54;25.05;;;7.50;;
27794;SDS011;15176;50.844;4.412;2023-03-04T04:34:20;21.20;;;7.45;;
27794;SDS011;15176;50.844;4.412;2023-03-04T04:36:46;26.45;;;7.40;;
27794;SDS011;15176;50.844;4.412;2023-03-04T04:39:11;20.65;;;7.70;;
27794;SDS011;15176;50.844;4.412;2023-03-04T04:41:38;22.73;;;8.02;;
27794;SDS011;15176;50.844;4.412;2023-03-04T04:44:05;21.77;;;8.02;;
27794;SDS011;15176;50.844;4.412;2023-03-04T04:46:32;21.38;;;8.05;;
27794;SDS011;15176;50.844;4.412;2023-03-04T04:48:58;20.52;;;8.02;;
27794;SDS011;15176;50.844;4.412;2023-03-04T04:51:24;23.52;;;7.72;;
27794;SDS011;15176;50.844;4.412;2023-03-04T04:53:49;25.45;;;8.02;;
27794;SDS011;15176;50.844;4.412;2023-03-04T04:56:20;16.73;;;7.45;;
27794;SDS011;15176;50.844;4.412;2023-03-04T04:58:48;20.65;;;8.02;;
27794;SDS011;15176;50.844;4.412;2023-03-04T05:01:14;23.17;;;7.53;;
27794;SDS011;15176;50.844;4.412;2023-03-04T05:03:40;22.40;;;8.27;;
27794;SDS011;15176;50.844;4.412;2023-03-04T05:06:07;23.45;;;8.38;;
27794;SDS011;15176;50.844;4.412;2023-03-04T05:08:34;22.33;;;8.60;;
27794;SDS011;15176;50.844;4.412;2023-03-04T05:11:00;22.55;;;8.15;;
27794;SDS011;15176;50.844;4.412;2023-03-04T05:13:29;27.95;;;10.10;;
27794;SDS011;15176;50.844;4.412;2023-03-04T05:15:55;22.00;;;8.15;;
27794;SDS011;15176;50.844;4.412;2023-03-04T05:18:21;25.88;;;9.00;;
27794;SDS011;15176;50.844;4.412;2023-03-04T05:20:49;25.65;;;8.35;;
27794;SDS011;15176;50.844;4.412;2023-03-04T05:23:19;25.92;;;9.45;;
27794;SDS011;15176;50.844;4.412;2023-03-04T05:25:45;32.72;;;9.65;;
27794;SDS011;15176;50.844;4.412;2023-03-04T05:28:11;19.42;;;8.57;;
27794;SDS011;15176;50.844;4.412;2023-03-04T05:30:38;25.05;;;9.77;;
27794;SDS011;15176;50.844;4.412;2023-03-04T05:33:04;29.35;;;9.38;;
27794;SDS011;15176;50.844;4.412;2023-03-04T05:35:33;20.05;;;8.27;;
27794;SDS011;15176;50.844;4.412;2023-03-04T05:38:03;24.95;;;7.63;;
27794;SDS011;15176;50.844;4.412;2023-03-04T05:40:30;25.48;;;5.85;;
27794;SDS011;15176;50.844;4.412;2023-03-04T05:42:56;19.23;;;4.90;;
27794;SDS011;15176;50.844;4.412;2023-03-04T05:45:22;15.10;;;4.57;;
27794;SDS011;15176;50.844;4.412;2023-03-04T05:47:48;18.92;;;5.47;;
27794;SDS011;15176;50.844;4.412;2023-03-04T05:50:14;20.52;;;5.38;;
27794;SDS011;15176;50.844;4.412;2023-03-04T05:52:39;13.13;;;4.75;;
27794;SDS011;15176;50.844;4.412;2023-03-04T05:55:05;19.88;;;4.93;;
27794;SDS011;15176;50.844;4.412;2023-03-04T05:57:31;16.88;;;5.18;;
27794;SDS011;15176;50.844;4.412;2023-03-04T05:59:57;18.10;;;5.20;;
27794;SDS011;15176;50.844;4.412;2023-03-04T06:02:22;16.80;;;4.85;;
27794;SDS011;15176;50.844;4.412;2023-03-04T06:04:48;20.60;;;5.20;;
27794;SDS011;15176;50.844;4.412;2023-03-04T06:07:15;15.05;;;4.60;;
27794;SDS011;15176;50.844;4.412;2023-03-04T06:09:41;16.05;;;4.32;;
27794;SDS011;15176;50.844;4.412;2023-03-04T06:12:09;14.05;;;3.65;;
27794;SDS011;15176;50.844;4.412;2023-03-04T06:14:35;14.98;;;3.78;;
27794;SDS011;15176;50.844;4.412;2023-03-04T06:17:01;11.48;;;3.60;;
27794;SDS011;15176;50.844;4.412;2023-03-04T06:19:27;20.83;;;4.18;;
27794;SDS011;15176;50.844;4.412;2023-03-04T06:21:53;14.65;;;3.85;;
27794;SDS011;15176;50.844;4.412;2023-03-04T06:24:19;17.15;;;3.15;;
27794;SDS011;15176;50.844;4.412;2023-03-04T06:26:44;13.25;;;2.88;;
27794;SDS011;15176;50.844;4.412;2023-03-04T06:29:10;9.90;;;3.00;;
27794;SDS011;15176;50.844;4.412;2023-03-04T06:31:36;12.13;;;2.88;;
27794;SDS011;15176;50.844;4.412;2023-03-04T06:34:02;24.13;;;3.28;;
27794;SDS011;15176;50.844;4.412;2023-03-04T06:36:28;12.35;;;2.92;;
27794;SDS011;15176;50.844;4.412;2023-03-04T06:38:53;22.65;;;3.58;;
27794;SDS011;15176;50.844;4.412;2023-03-04T06:41:19;16.38;;;2.92;;
27794;SDS011;15176;50.844;4.412;2023-03-04T06:43:45;14.80;;;3.00;;
27794;SDS011;15176;50.844;4.412;2023-03-04T06:46:10;16.33;;;3.80;;
27794;SDS011;15176;50.844;4.412;2023-03-04T06:48:36;15.10;;;2.80;;
27794;SDS011;15176;50.844;4.412;2023-03-04T06:51:05;10.55;;;3.42;;
27794;SDS011;15176;50.844;4.412;2023-03-04T06:53:32;13.90;;;3.42;;
27794;SDS011;15176;50.844;4.412;2023-03-04T06:55:58;18.15;;;3.42;;
27794;SDS011;15176;50.844;4.412;2023-03-04T06:58:25;17.50;;;3.50;;
27794;SDS011;15176;50.844;4.412;2023-03-04T07:00:51;15.10;;;3.10;;
27794;SDS011;15176;50.844;4.412;2023-03-04T07:03:16;14.80;;;3.50;;
27794;SDS011;15176;50.844;4.412;2023-03-04T07:05:42;17.52;;;3.05;;
27794;SDS011;15176;50.844;4.412;2023-03-04T07:08:08;12.70;;;2.80;;
27794;SDS011;15176;50.844;4.412;2023-03-04T07:10:33;18.85;;;3.50;;
27794;SDS011;15176;50.844;4.412;2023-03-04T07:12:59;16.17;;;2.97;;
27794;SDS011;15176;50.844;4.412;2023-03-04T07:15:25;15.30;;;3.20;;
27794;SDS011;15176;50.844;4.412;2023-03-04T07:17:51;14.77;;;2.90;;
27794;SDS011;15176;50.844;4.412;2023-03-04T07:20:18;22.35;;;3.88;;
27794;SDS011;15176;50.844;4.412;2023-03-04T07:22:44;16.13;;;3.67;;
27794;SDS011;15176;50.844;4.412;2023-03-04T07:25:10;16.73;;;3.65;;
27794;SDS011;15176;50.844;4.412;2023-03-04T07:27:36;16.55;;;3.45;;
27794;SDS011;15176;50.844;4.412;2023-03-04T07:30:05;16.80;;;3.05;;
27794;SDS011;15176;50.844;4.412;2023-03-04T07:32:32;12.48;;;3.38;;
27794;SDS011;15176;50.844;4.412;2023-03-04T07:35:01;16.38;;;3.40;;
27794;SDS011;15176;50.844;4.412;2023-03-04T07:37:28;13.98;;;3.38;;
27794;SDS011;15176;50.844;4.412;2023-03-04T07:39:53;13.50;;;3.45;;
27794;SDS011;15176;50.844;4.412;2023-03-04T07:42:19;14.27;;;3.47;;
27794;SDS011;15176;50.844;4.412;2023-03-04T07:44:45;16.42;;;3.33;;
27794;SDS011;15176;50.844;4.412;2023-03-04T07:47:11;14.55;;;3.40;;
27794;SDS011;15176;50.844;4.412;2023-03-04T07:49:38;18.35;;;3.72;;
27794;SDS011;15176;50.844;4.412;2023-03-04T07:52:04;15.05;;;3.65;;
27794;SDS011;15176;50.844;4.412;2023-03-04T07:54:30;14.85;;;5.68;;
27794;SDS011;15176;50.844;4.412;2023-03-04T07:56:56;20.50;;;7.07;;
27794;SDS011;15176;50.844;4.412;2023-03-04T07:59:22;20.50;;;4.80;;
27794;SDS011;15176;50.844;4.412;2023-03-04T08:01:47;12.68;;;4.65;;
27794;SDS011;15176;50.844;4.412;2023-03-04T08:04:13;15.00;;;3.95;;
27794;SDS011;15176;50.844;4.412;2023-03-04T08:06:39;13.02;;;4.15;;
27794;SDS011;15176;50.844;4.412;2023-03-04T08:09:06;11.40;;;3.40;;
27794;SDS011;15176;50.844;4.412;2023-03-04T08:11:34;11.27;;;3.50;;
27794;SDS011;15176;50.844;4.412;2023-03-04T08:14:01;15.85;;;3.20;;
27794;SDS011;15176;50.844;4.412;2023-03-04T08:16:29;12.57;;;3.00;;
27794;SDS011;15176;50.844;4.412;2023-03-04T08:18:56;11.57;;;3.25;;
27794;SDS011;15176;50.844;4.412;2023-03-04T08:21:23;13.65;;;2.92;;
27794;SDS011;15176;50.844;4.412;2023-03-04T08:23:50;12.07;;;2.80;;
27794;SDS011;15176;50.844;4.412;2023-03-04T08:26:21;12.63;;;2.60;;
27794;SDS011;15176;50.844;4.412;2023-03-04T08:28:49;12.63;;;2.65;;
27794;SDS011;15176;50.844;4.412;2023-03-04T08:31:16;11.25;;;2.60;;
27794;SDS011;15176;50.844;4.412;2023-03-04T08:33:42;8.07;;;2.55;;
27794;SDS011;15176;50.844;4.412;2023-03-04T08:36:08;11.80;;;2.63;;
27794;SDS011;15176;50.844;4.412;2023-03-04T08:38:34;11.30;;;3.10;;
27794;SDS011;15176;50.844;4.412;2023-03-04T08:41:00;14.15;;;2.50;;
27794;SDS011;15176;50.844;4.412;2023-03-04T08:43:28;10.55;;;2.80;;
27794;SDS011;15176;50.844;4.412;2023-03-04T08:45:54;20.52;;;2.70;;
27794;SDS011;15176;50.844;4.412;2023-03-04T08:48:20;13.18;;;2.45;;
27794;SDS011;15176;50.844;4.412;2023-03-04T08:50:46;8.77;;;2.33;;
27794;SDS011;15176;50.844;4.412;2023-03-04T08:53:13;13.85;;;2.38;;
27794;SDS011;15176;50.844;4.412;2023-03-04T08:55:39;8.80;;;2.40;;
27794;SDS011;15176;50.844;4.412;2023-03-04T08:58:07;11.63;;;2.72;;
27794;SDS011;15176;50.844;4.412;2023-03-04T09:00:34;13.48;;;2.78;;
27794;SDS011;15176;50.844;4.412;2023-03-04T09:03:02;14.93;;;3.63;;
27794;SDS011;15176;50.844;4.412;2023-03-04T09:05:28;9.25;;;2.70;;
27794;SDS011;15176;50.844;4.412;2023-03-04T09:07:55;13.32;;;2.72;;
27794;SDS011;15176;50.844;4.412;2023-03-04T09:10:21;12.63;;;2.60;;
27794;SDS011;15176;50.844;4.412;2023-03-04T09:12:47;12.50;;;3.03;;
27794;SDS011;15176;50.844;4.412;2023-03-04T09:15:12;8.57;;;2.70;;
27794;SDS011;15176;50.844;4.412;2023-03-04T09:17:40;16.15;;;3.25;;
27794;SDS011;15176;50.844;4.412;2023-03-04T09:20:06;14.98;;;3.22;;
27794;SDS011;15176;50.844;4.412;2023-03-04T09:22:34;11.98;;;3.15;;
27794;SDS011;15176;50.844;4.412;2023-03-04T09:25:01;12.35;;;2.97;;
27794;SDS011;15176;50.844;4.412;2023-03-04T09:27:28;12.85;;;3.83;;
27794;SDS011;15176;50.844;4.412;2023-03-04T09:29:54;11.50;;;4.03;;
27794;SDS011;15176;50.844;4.412;2023-03-04T09:32:20;15.48;;;5.28;;
27794;SDS011;15176;50.844;4.412;2023-03-04T09:34:46;14.48;;;4.40;;
27794;SDS011;15176;50.844;4.412;2023-03-04T09:37:12;15.48;;;4.68;;
27794;SDS011;15176;50.844;4.412;2023-03-04T09:39:38;15.80;;;4.95;;
27794;SDS011;15176;50.844;4.412;2023-03-04T09:42:03;14.65;;;4.65;;
27794;SDS011;15176;50.844;4.412;2023-03-04T09:44:32;13.93;;;4.93;;
27794;SDS011;15176;50.844;4.412;2023-03-04T09:47:02;12.60;;;4.70;;
27794;SDS011;15176;50.844;4.412;2023-03-04T09:49:30;13.40;;;4.32;;
27794;SDS011;15176;50.844;4.412;2023-03-04T09:54:49;14.95;;;4.65;;
27794;SDS011;15176;50.844;4.412;2023-03-04T09:57:27;14.15;;;5.35;;
27794;SDS011;15176;50.844;4.412;2023-03-04T10:06:22;15.30;;;5.07;;
27794;SDS011;15176;50.844;4.412;2023-03-04T10:16:52;19.27;;;4.40;;
27794;SDS011;15176;50.844;4.412;2023-03-04T10:25:14;15.23;;;4.57;;
27794;SDS011;15176;50.844;4.412;2023-03-04T10:27:50;21.13;;;5.40;;
27794;SDS011;15176;50.844;4.412;2023-03-04T10:33:31;16.17;;;5.35;;
27794;SDS011;15176;50.844;4.412;2023-03-04T10:38:42;18.17;;;6.07;;
27794;SDS011;15176;50.844;4.412;2023-03-04T10:41:16;20.27;;;6.20;;
27794;SDS011;15176;50.844;4.412;2023-03-04T10:43:49;25.02;;;6.53;;
27794;SDS011;15176;50.844;4.412;2023-03-04T10:46:25;15.88;;;6.30;;
27794;SDS011;15176;50.844;4.412;2023-03-04T10:48:52;17.08;;;5.85;;
27794;SDS011;15176;50.844;4.412;2023-03-04T10:51:19;13.63;;;4.63;;
27794;SDS011;15176;50.844;4.412;2023-03-04T10:53:50;14.23;;;5.07;;
27794;SDS011;15176;50.844;4.412;2023-03-04T11:01:56;15.63;;;4.43;;
27794;SDS011;15176;50.844;4.412;2023-03-04T11:04:26;13.05;;;4.05;;
27794;SDS011;15176;50.844;4.412;2023-03-04T11:06:56;12.40;;;4.28;;
27794;SDS011;15176;50.844;4.412;2023-03-04T11:09:23;11.63;;;4.32;;
27794;SDS011;15176;50.844;4.412;2023-03-04T11:11:51;12.68;;;4.47;;
27794;SDS011;15176;50.844;4.412;2023-03-04T11:14:21;15.52;;;4.60;;
27794;SDS011;15176;50.844;4.412;2023-03-04T11:16:57;12.75;;;4.05;;
27794;SDS011;15176;50.844;4.412;2023-03-04T11:19:37;10.38;;;4.43;;
27794;SDS011;15176;50.844;4.412;2023-03-04T11:22:04;11.63;;;3.83;;
27794;SDS011;15176;50.844;4.412;2023-03-04T11:24:30;10.13;;;3.35;;
27794;SDS011;15176;50.844;4.412;2023-03-04T11:29:51;17.42;;;4.70;;
27794;SDS011;15176;50.844;4.412;2023-03-04T11:32:21;12.77;;;4.28;;
27794;SDS011;15176;50.844;4.412;2023-03-04T11:40:44;16.33;;;4.38;;
27794;SDS011;15176;50.844;4.412;2023-03-04T11:43:24;11.90;;;4.43;;
27794;SDS011;15176;50.844;4.412;2023-03-04T11:51:09;11.10;;;4.43;;
27794;SDS011;15176;50.844;4.412;2023-03-04T11:56:44;13.55;;;4.07;;
27794;SDS011;15176;50.844;4.412;2023-03-04T12:02:19;13.40;;;4.05;;
27794;SDS011;15176;50.844;4.412;2023-03-04T12:19:10;12.68;;;5.20;;
27794;SDS011;15176;50.844;4.412;2023-03-04T12:32:59;10.77;;;4.90;;
27794;SDS011;15176;50.844;4.412;2023-03-04T12:41:09;13.48;;;4.53;;
27794;SDS011;15176;50.844;4.412;2023-03-04T12:44:05;11.40;;;4.50;;
27794;SDS011;15176;50.844;4.412;2023-03-04T12:47:01;10.90;;;4.28;;
27794;SDS011;15176;50.844;4.412;2023-03-04T12:54:57;10.05;;;3.13;;
27794;SDS011;15176;50.844;4.412;2023-03-04T12:57:29;11.05;;;4.10;;
27794;SDS011;15176;50.844;4.412;2023-03-04T13:03:06;10.52;;;3.55;;
27794;SDS011;15176;50.844;4.412;2023-03-04T13:08:29;9.43;;;2.90;;
27794;SDS011;15176;50.844;4.412;2023-03-04T13:11:52;11.20;;;2.88;;
27794;SDS011;15176;50.844;4.412;2023-03-04T13:25:01;7.70;;;2.40;;
27794;SDS011;15176;50.844;4.412;2023-03-04T13:28:12;8.45;;;2.72;;
27794;SDS011;15176;50.844;4.412;2023-03-04T13:30:41;8.07;;;2.53;;
27794;SDS011;15176;50.844;4.412;2023-03-04T13:59:26;9.40;;;2.80;;
27794;SDS011;15176;50.844;4.412;2023-03-04T14:04:32;8.52;;;2.40;;
27794;SDS011;15176;50.844;4.412;2023-03-04T14:07:02;6.20;;;2.15;;
27794;SDS011;15176;50.844;4.412;2023-03-04T14:12:49;7.70;;;2.17;;
27794;SDS011;15176;50.844;4.412;2023-03-04T14:17:45;6.35;;;2.13;;
27794;SDS011;15176;50.844;4.412;2023-03-04T14:20:47;7.85;;;2.38;;
27794;SDS011;15176;50.844;4.412;2023-03-04T14:25:47;8.00;;;2.30;;
27794;SDS011;15176;50.844;4.412;2023-03-04T14:28:13;7.93;;;2.60;;
27794;SDS011;15176;50.844;4.412;2023-03-04T14:30:41;8.48;;;2.92;;
27794;SDS011;15176;50.844;4.412;2023-03-04T14:33:18;7.30;;;2.30;;
27794;SDS011;15176;50.844;4.412;2023-03-04T14:35:55;4.47;;;2.30;;
27794;SDS011;15176;50.844;4.412;2023-03-04T14:43:45;9.70;;;2.45;;
27794;SDS011;15176;50.844;4.412;2023-03-04T14:46:34;6.43;;;1.73;;
27794;SDS011;15176;50.844;4.412;2023-03-04T14:49:04;4.80;;;2.20;;
27794;SDS011;15176;50.844;4.412;2023-03-04T14:51:35;9.35;;;2.50;;
27794;SDS011;15176;50.844;4.412;2023-03-04T14:54:02;6.53;;;2.53;;
27794;SDS011;15176;50.844;4.412;2023-03-04T14:56:29;5.78;;;1.98;;
27794;SDS011;15176;50.844;4.412;2023-03-04T14:58:58;4.85;;;1.90;;
27794;SDS011;15176;50.844;4.412;2023-03-04T15:01:28;4.63;;;2.20;;
27794;SDS011;15176;50.844;4.412;2023-03-04T15:06:30;8.65;;;2.47;;
27794;SDS011;15176;50.844;4.412;2023-03-04T15:11:25;6.07;;;2.60;;
27794;SDS011;15176;50.844;4.412;2023-03-04T15:13:54;5.50;;;2.10;;
27794;SDS011;15176;50.844;4.412;2023-03-04T15:16:22;5.72;;;2.60;;
27794;SDS011;15176;50.844;4.412;2023-03-04T15:18:59;6.45;;;2.40;;
27794;SDS011;15176;50.844;4.412;2023-03-04T15:24:02;8.25;;;2.80;;
27794;SDS011;15176;50.844;4.412;2023-03-04T15:26:33;7.32;;;2.50;;
27794;SDS011;15176;50.844;4.412;2023-03-04T15:29:11;4.88;;;2.00;;
27794;SDS011;15176;50.844;4.412;2023-03-04T15:31:42;5.95;;;1.67;;
27794;SDS011;15176;50.844;4.412;2023-03-04T15:34:15;7.68;;;2.22;;
27794;SDS011;15176;50.844;4.412;2023-03-04T15:36:44;9.20;;;2.67;;
27794;SDS011;15176;50.844;4.412;2023-03-04T15:39:13;7.00;;;2.67;;
27794;SDS011;15176;50.844;4.412;2023-03-04T15:41:40;7.32;;;2.67;;
27794;SDS011;15176;50.844;4.412;2023-03-04T15:44:06;13.35;;;2.85;;
27794;SDS011;15176;50.844;4.412;2023-03-04T15:46:33;4.78;;;1.90;;
27794;SDS011;15176;50.844;4.412;2023-03-04T15:48:59;9.60;;;2.47;;
27794;SDS011;15176;50.844;4.412;2023-03-04T15:51:25;8.02;;;1.95;;
27794;SDS011;15176;50.844;4.412;2023-03-04T15:53:52;6.68;;;2.03;;
27794;SDS011;15176;50.844;4.412;2023-03-04T15:56:25;5.93;;;2.00;;
27794;SDS011;15176;50.844;4.412;2023-03-04T15:58:55;6.35;;;2.08;;
27794;SDS011;15176;50.844;4.412;2023-03-04T16:01:34;7.93;;;1.83;;
27794;SDS011;15176;50.844;4.412;2023-03-04T16:04:00;5.03;;;1.90;;
27794;SDS011;15176;50.844;4.412;2023-03-04T16:06:27;12.02;;;2.17;;
27794;SDS011;15176;50.844;4.412;2023-03-04T16:08:57;7.93;;;2.05;;
27794;SDS011;15176;50.844;4.412;2023-03-04T16:11:25;7.13;;;1.92;;
27794;SDS011;15176;50.844;4.412;2023-03-04T16:13:55;7.90;;;1.70;;
27794;SDS011;15176;50.844;4.412;2023-03-04T16:16:20;8.25;;;1.85;;
27794;SDS011;15176;50.844;4.412;2023-03-04T16:18:46;6.57;;;1.70;;
27794;SDS011;15176;50.844;4.412;2023-03-04T16:21:13;7.47;;;1.88;;
27794;SDS011;15176;50.844;4.412;2023-03-04T16:23:43;7.13;;;1.95;;
27794;SDS011;15176;50.844;4.412;2023-03-04T16:26:16;6.05;;;1.65;;
27794;SDS011;15176;50.844;4.412;2023-03-04T16:28:44;10.48;;;1.88;;
27794;SDS011;15176;50.844;4.412;2023-03-04T16:31:10;6.45;;;2.13;;
27794;SDS011;15176;50.844;4.412;2023-03-04T16:33:37;7.90;;;2.47;;
27794;SDS011;15176;50.844;4.412;2023-03-04T16:36:03;7.07;;;2.22;;
27794;SDS011;15176;50.844;4.412;2023-03-04T16:38:44;6.10;;;2.13;;
27794;SDS011;15176;50.844;4.412;2023-03-04T16:41:12;10.90;;;2.35;;
27794;SDS011;15176;50.844;4.412;2023-03-04T16:43:40;8.48;;;2.22;;
27794;SDS011;15176;50.844;4.412;2023-03-04T16:46:07;5.05;;;2.20;;
27794;SDS011;15176;50.844;4.412;2023-03-04T16:48:34;8.05;;;2.38;;
27794;SDS011;15176;50.844;4.412;2023-03-04T16:51:03;7.40;;;2.00;;
27794;SDS011;15176;50.844;4.412;2023-03-04T16:53:56;8.35;;;2.00;;
27794;SDS011;15176;50.844;4.412;2023-03-04T16:56:25;5.15;;;2.20;;
27794;SDS011;15176;50.844;4.412;2023-03-04T16:58:51;10.77;;;2.05;;
27794;SDS011;15176;50.844;4.412;2023-03-04T17:01:22;9.60;;;2.60;;
27794;SDS011;15176;50.844;4.412;2023-03-04T17:03:49;10.25;;;2.20;;
27794;SDS011;15176;50.844;4.412;2023-03-04T17:06:16;6.70;;;2.40;;
27794;SDS011;15176;50.844;4.412;2023-03-04T17:08:43;11.10;;;2.42;;
27794;SDS011;15176;50.844;4.412;2023-03-04T17:11:14;6.60;;;2.17;;
27794;SDS011;15176;50.844;4.412;2023-03-04T17:13:42;8.95;;;2.17;;
27794;SDS011;15176;50.844;4.412;2023-03-04T17:16:09;6.70;;;2.38;;
27794;SDS011;15176;50.844;4.412;2023-03-04T17:18:36;9.27;;;3.08;;
27794;SDS011;15176;50.844;4.412;2023-03-04T17:21:07;11.98;;;3.55;;
27794;SDS011;15176;50.844;4.412;2023-03-04T17:23:36;6.47;;;2.95;;
27794;SDS011;15176;50.844;4.412;2023-03-04T17:26:02;12.13;;;3.00;;
27794;SDS011;15176;50.844;4.412;2023-03-04T17:28:28;8.63;;;2.33;;
27794;SDS011;15176;50.844;4.412;2023-03-04T17:30:54;7.03;;;2.20;;
27794;SDS011;15176;50.844;4.412;2023-03-04T17:33:20;6.63;;;2.20;;